Time;durP1;ratioP1;P1;durP2;ratioP2;P2;SDS_P1;SDS_P2;PMS_P1;PMS_P2;Temp;Humidity;BMP_temperature;BMP_pressure;BME280_temperature;BME280_humidity;BME280_pressure;Samples;Min_cycle;Max_cycle;Signal;HPM_P1;HPM_P2
2023/06/21 00:02:17;;;;;;;28.90;17.35;;;;;;;-146.27;100.00;81440.16;5028349;28;20103;-70
2023/06/21 00:04:43;;;;;;;26.73;16.55;;;;;;;-146.27;100.00;81444.19;5029416;28;20975;-70
2023/06/21 00:07:08;;;;;;;25.92;16.85;;;;;;;-146.27;100.00;81442.16;5030045;28;20030;-71
2023/06/21 00:09:33;;;;;;;25.42;17.20;;;;;;;-146.27;100.00;81456.22;5026073;28;20111;-70
2023/06/21 00:11:59;;;;;;;33.45;18.45;;;;;;;-146.27;100.00;81440.16;5029769;28;20029;-71
2023/06/21 00:14:24;;;;;;;22.13;15.93;;;;;;;-146.27;100.00;81468.28;5027070;28;20036;-70
2023/06/21 00:16:50;;;;;;;26.67;16.85;;;;;;;-146.27;100.00;81468.28;5043874;28;20022;-71
2023/06/21 00:19:15;;;;;;;29.33;18.83;;;;;;;-146.27;100.00;81440.16;5027228;28;20396;-72
2023/06/21 00:21:40;;;;;;;28.38;18.05;;;;;;;-146.27;100.00;81464.25;5028567;28;20103;-71
2023/06/21 00:24:09;;;;;;;27.30;18.65;;;;;;;-146.27;100.00;81472.28;5029451;28;20033;-72
2023/06/21 00:26:34;;;;;;;26.30;19.45;;;;;;;-146.27;100.00;81456.22;5029021;28;20094;-71
2023/06/21 00:28:59;;;;;;;25.33;17.83;;;;;;;-146.27;100.00;81440.16;5026519;28;20056;-71
2023/06/21 00:31:25;;;;;;;27.50;18.70;;;;;;;-146.27;100.00;81438.16;5027962;28;20037;-71
2023/06/21 00:33:50;;;;;;;26.48;17.83;;;;;;;-146.27;100.00;81488.38;5029366;28;20029;-71
2023/06/21 00:36:15;;;;;;;28.65;18.27;;;;;;;-146.27;100.00;81508.44;5027074;28;20538;-71
2023/06/21 00:38:41;;;;;;;30.42;18.25;;;;;;;-146.27;100.00;81512.47;5029153;28;20029;-71
2023/06/21 00:41:06;;;;;;;31.25;17.98;;;;;;;-146.27;100.00;81486.34;5028777;28;20037;-71
2023/06/21 00:43:32;;;;;;;23.38;16.85;;;;;;;-146.27;100.00;81488.38;5033452;28;20021;-72
2023/06/21 00:45:57;;;;;;;25.30;17.45;;;;;;;-146.27;100.00;81482.34;5028749;28;20100;-71
2023/06/21 00:48:27;;;;;;;28.90;18.80;;;;;;;-146.27;100.00;81500.41;5032303;28;20034;-71
2023/06/21 00:50:53;;;;;;;30.02;17.85;;;;;;;-146.27;100.00;81530.53;5023249;28;20061;-71
2023/06/21 00:53:18;;;;;;;27.75;18.25;;;;;;;-146.27;100.00;81544.59;5027956;28;20060;-71
2023/06/21 00:55:45;;;;;;;30.42;18.10;;;;;;;-146.27;100.00;81544.59;5026578;28;20474;-71
2023/06/21 00:58:12;;;;;;;26.10;17.35;;;;;;;-146.27;100.00;81492.38;5033132;28;20032;-71
2023/06/21 01:00:37;;;;;;;23.60;17.17;;;;;;;-146.27;100.00;81522.50;5021797;28;20076;-71
2023/06/21 01:03:03;;;;;;;25.65;17.27;;;;;;;-146.27;100.00;81532.53;5033121;28;20529;-71
2023/06/21 01:05:30;;;;;;;30.50;18.75;;;;;;;-146.27;100.00;81516.47;5033613;28;20120;-71
2023/06/21 01:08:27;;;;;;;26.15;17.65;;;;;;;-146.27;100.00;81514.47;5029482;28;20377;-71
2023/06/21 01:10:59;;;;;;;32.08;17.13;;;;;;;-146.27;100.00;81536.56;5025924;28;20046;-71
2023/06/21 01:13:44;;;;;;;24.85;16.95;;;;;;;-146.27;100.00;81500.41;5031465;28;20029;-71
2023/06/21 01:16:13;;;;;;;27.42;17.52;;;;;;;-146.27;100.00;81546.59;5032063;28;20545;-71
2023/06/21 01:18:45;;;;;;;27.58;17.33;;;;;;;-146.27;100.00;81532.53;5033179;28;20056;-71
2023/06/21 01:21:16;;;;;;;26.25;16.83;;;;;;;-146.27;100.00;81556.66;5031871;28;20536;-71
2023/06/21 01:23:59;;;;;;;27.55;16.60;;;;;;;-146.27;100.00;81498.41;5036737;28;20040;-71
2023/06/21 01:26:43;;;;;;;;;;;;;;;-146.27;100.00;81530.53;5032361;28;20128;-71
2023/06/21 01:29:14;;;;;;;31.23;17.13;;;;;;;-146.27;100.00;81548.59;5030311;28;20075;-71
2023/06/21 01:31:42;;;;;;;25.70;16.73;;;;;;;-146.27;100.00;81568.69;5031029;28;20061;-71
2023/06/21 01:34:10;;;;;;;26.50;17.45;;;;;;;-146.27;100.00;81564.69;5031627;28;20030;-71
2023/06/21 01:36:39;;;;;;;27.83;16.45;;;;;;;-146.27;100.00;81476.31;5032823;28;20103;-71
2023/06/21 01:39:08;;;;;;;23.15;15.43;;;;;;;-146.27;100.00;81568.69;5030590;28;20388;-71
2023/06/21 01:41:35;;;;;;;30.23;15.15;;;;;;;-146.27;100.00;81572.72;5032590;28;20422;-71
2023/06/21 01:44:02;;;;;;;25.73;15.02;;;;;;;-146.27;100.00;81661.09;5032285;28;20135;-71
2023/06/21 01:46:29;;;;;;;24.65;16.17;;;;;;;-146.27;100.00;81558.66;5031808;28;20029;-71
2023/06/21 01:48:55;;;;;;;25.48;14.60;;;;;;;-146.27;100.00;81576.72;5031815;28;20225;-71
2023/06/21 01:51:22;;;;;;;22.00;14.68;;;;;;;-146.27;100.00;81608.88;5031763;28;20037;-71
2023/06/21 01:53:48;;;;;;;20.40;14.95;;;;;;;-146.27;100.00;81616.91;5022135;28;20084;-71
2023/06/21 01:56:17;;;;;;;24.70;15.43;;;;;;;-146.27;100.00;81608.88;5030510;28;20104;-71
2023/06/21 01:58:44;;;;;;;25.50;15.00;;;;;;;-146.27;100.00;81606.84;5032370;28;20029;-72
2023/06/21 02:01:11;;;;;;;23.98;14.45;;;;;;;-146.27;100.00;81651.03;5030090;28;20033;-72
2023/06/21 02:03:40;;;;;;;21.25;14.50;;;;;;;-146.27;100.00;81645.00;5032028;28;20048;-72
2023/06/21 02:06:07;;;;;;;21.85;15.20;;;;;;;-146.27;100.00;81665.09;5028244;28;20034;-72
2023/06/21 02:08:34;;;;;;;26.30;14.32;;;;;;;-146.27;100.00;81620.91;5029794;28;20059;-72
2023/06/21 02:11:01;;;;;;;22.73;14.93;;;;;;;-146.27;100.00;81628.94;5028450;28;20445;-72
2023/06/21 02:13:27;;;;;;;25.23;15.10;;;;;;;-146.27;100.00;81626.94;5014765;28;20188;-72
2023/06/21 02:15:53;;;;;;;27.67;15.27;;;;;;;-146.27;100.00;81663.09;5042203;28;20112;-71
2023/06/21 02:18:22;;;;;;;24.90;15.07;;;;;;;-146.27;100.00;81616.91;5031704;28;20083;-71
2023/06/21 02:20:48;;;;;;;28.80;15.98;;;;;;;-146.27;100.00;81653.06;5030991;28;20421;-71
2023/06/21 02:23:13;;;;;;;23.38;15.55;;;;;;;-146.27;100.00;81632.97;5028325;28;20041;-72
2023/06/21 02:25:39;;;;;;;27.25;16.30;;;;;;;-146.27;100.00;81669.13;5029540;28;20026;-72
2023/06/21 02:28:05;;;;;;;22.98;14.98;;;;;;;-146.27;100.00;81628.94;5031579;28;20025;-71
2023/06/21 02:30:30;;;;;;;25.70;15.70;;;;;;;-146.27;100.00;81669.13;5031142;28;20382;-72
2023/06/21 02:32:56;;;;;;;25.42;15.48;;;;;;;-146.27;100.00;81661.09;5040407;28;20025;-72
2023/06/21 02:35:21;;;;;;;23.70;14.98;;;;;;;-146.27;100.00;81667.09;5030976;28;20094;-72
2023/06/21 02:37:47;;;;;;;29.10;16.00;;;;;;;-146.27;100.00;81677.16;5031471;28;20021;-71
2023/06/21 02:40:13;;;;;;;25.40;14.77;;;;;;;-146.27;100.00;81628.94;5026839;28;20025;-70
2023/06/21 02:42:40;;;;;;;25.90;15.95;;;;;;;-146.27;100.00;81626.94;5029740;28;20042;-72
2023/06/21 02:45:06;;;;;;;22.63;14.88;;;;;;;-146.27;100.00;81653.06;5030626;28;20126;-71
2023/06/21 02:47:32;;;;;;;26.80;15.70;;;;;;;-146.27;100.00;81671.13;5031732;28;20021;-72
2023/06/21 02:49:57;;;;;;;27.20;13.57;;;;;;;-146.27;100.00;81685.19;5030746;28;20375;-72
2023/06/21 02:52:23;;;;;;;23.00;13.60;;;;;;;-146.27;100.00;81701.25;5030281;28;20452;-73
2023/06/21 02:54:48;;;;;;;31.60;15.88;;;;;;;-146.27;100.00;81673.13;5022603;28;20021;-72
2023/06/21 02:57:14;;;;;;;23.08;14.88;;;;;;;-146.27;100.00;81671.13;5023900;28;20466;-72
2023/06/21 02:59:39;;;;;;;23.23;13.95;;;;;;;-146.27;100.00;81695.22;5031077;28;20038;-71
2023/06/21 03:02:05;;;;;;;22.52;12.82;;;;;;;-146.27;100.00;81701.25;5030681;28;20083;-72
2023/06/21 03:04:30;;;;;;;19.88;12.68;;;;;;;-146.27;100.00;81705.28;5029147;28;20402;-71
2023/06/21 03:06:56;;;;;;;22.55;12.90;;;;;;;-146.27;100.00;81711.28;5021213;28;20489;-72
2023/06/21 03:09:22;;;;;;;18.10;11.50;;;;;;;-146.27;100.00;81691.22;5028724;28;20041;-72
2023/06/21 03:11:48;;;;;;;16.40;11.38;;;;;;;-146.27;100.00;81677.16;5030838;28;20377;-72
2023/06/21 03:14:14;;;;;;;15.73;10.57;;;;;;;-146.27;100.00;81689.19;5030890;28;20033;-72
2023/06/21 03:16:40;;;;;;;17.17;10.27;;;;;;;-146.27;100.00;81657.06;5029338;28;20029;-71
2023/06/21 03:19:07;;;;;;;14.52;8.57;;;;;;;-146.27;100.00;81697.22;5030226;28;20017;-72
2023/06/21 03:21:33;;;;;;;15.65;9.63;;;;;;;-146.27;100.00;81781.59;5031380;28;20390;-72
2023/06/21 03:23:59;;;;;;;17.70;8.68;;;;;;;-146.27;100.00;81683.19;5033029;28;20029;-72
2023/06/21 03:26:24;;;;;;;17.00;8.68;;;;;;;-146.27;100.00;81705.28;5031742;28;20040;-72
2023/06/21 03:28:49;;;;;;;13.85;7.82;;;;;;;-146.27;100.00;81669.13;5028744;28;20390;-72
2023/06/21 03:31:15;;;;;;;12.70;6.93;;;;;;;-146.27;100.00;81685.19;5029048;28;20068;-72
2023/06/21 03:33:40;;;;;;;14.73;6.82;;;;;;;-146.27;100.00;81697.22;5028353;28;20052;-71
2023/06/21 03:36:05;;;;;;;13.63;6.65;;;;;;;-146.27;100.00;81689.19;5030156;28;20029;-72
2023/06/21 03:38:31;;;;;;;12.60;5.82;;;;;;;-146.27;100.00;81715.31;5029232;28;20028;-72
2023/06/21 03:40:56;;;;;;;11.35;5.70;;;;;;;-146.27;100.00;81697.22;5021551;28;20559;-72
2023/06/21 03:43:21;;;;;;;14.85;6.00;;;;;;;-146.27;100.00;81721.34;5035758;28;20569;-71
2023/06/21 03:45:47;;;;;;;12.73;6.70;;;;;;;-146.27;100.00;81693.22;5022683;28;20034;-72
2023/06/21 03:48:12;;;;;;;8.23;5.28;;;;;;;-146.27;100.00;81683.19;5020739;28;20108;-71
2023/06/21 03:50:38;;;;;;;10.68;5.35;;;;;;;-146.27;100.00;81717.31;5021595;28;20120;-71
2023/06/21 03:53:05;;;;;;;9.75;6.18;;;;;;;-146.27;100.00;81717.31;5022907;28;20043;-71
2023/06/21 03:55:31;;;;;;;13.77;5.85;;;;;;;-146.27;100.00;81657.06;5024701;28;20669;-72
2023/06/21 03:57:56;;;;;;;9.68;5.10;;;;;;;-146.27;100.00;81703.25;5027736;28;20062;-72
2023/06/21 04:00:21;;;;;;;9.93;4.65;;;;;;;-146.27;100.00;81667.09;5030164;28;20071;-71
2023/06/21 04:02:47;;;;;;;9.23;4.15;;;;;;;-146.27;100.00;81735.41;5029530;28;20461;-72
2023/06/21 04:05:12;;;;;;;9.13;4.30;;;;;;;-146.27;100.00;81737.41;5026945;28;20498;-72
2023/06/21 04:07:38;;;;;;;7.55;4.63;;;;;;;-146.27;100.00;81709.28;5027359;28;20052;-72
2023/06/21 04:10:04;;;;;;;7.85;3.97;;;;;;;-146.27;100.00;81711.28;5028436;28;20560;-72
2023/06/21 04:12:30;;;;;;;6.75;3.78;;;;;;;-146.27;100.00;81713.31;5030164;28;20393;-71
2023/06/21 04:15:03;;;;;;;11.27;3.80;;;;;;;-146.27;100.00;81719.31;5018295;28;20101;-72
2023/06/21 04:17:29;;;;;;;7.30;3.50;;;;;;;-146.27;100.00;81701.25;5029073;28;20442;-71
2023/06/21 04:19:55;;;;;;;10.45;3.80;;;;;;;-146.27;100.00;81695.22;5029180;28;20076;-72
2023/06/21 04:22:23;;;;;;;6.90;3.60;;;;;;;-146.27;100.00;81737.41;5029026;28;20025;-72
2023/06/21 04:24:49;;;;;;;8.15;3.72;;;;;;;-146.27;100.00;81713.31;5029355;28;20029;-72
2023/06/21 04:27:15;;;;;;;13.00;3.40;;;;;;;-146.27;100.00;81721.34;5029419;28;20037;-72
2023/06/21 04:29:40;;;;;;;12.07;3.40;;;;;;;-146.27;100.00;81713.31;5030921;28;20503;-72
2023/06/21 04:32:07;;;;;;;4.75;3.50;;;;;;;-146.27;100.00;81721.34;5032079;28;20041;-72
2023/06/21 04:34:33;;;;;;;8.68;4.40;;;;;;;-146.27;100.00;81705.28;5027520;28;20044;-72
2023/06/21 04:36:58;;;;;;;8.88;3.63;;;;;;;-146.27;100.00;81713.31;5028979;28;20108;-71
2023/06/21 04:39:24;;;;;;;6.32;3.97;;;;;;;-146.27;100.00;81715.31;5029571;28;20081;-71
2023/06/21 04:41:52;;;;;;;7.78;4.03;;;;;;;-146.27;100.00;81711.28;5028917;28;20083;-72
2023/06/21 04:44:17;;;;;;;9.52;3.97;;;;;;;-146.27;100.00;81677.16;5029198;28;20474;-72
2023/06/21 04:46:45;;;;;;;8.00;4.00;;;;;;;-146.27;100.00;81677.16;5019162;28;20284;-71
2023/06/21 04:49:11;;;;;;;7.90;4.07;;;;;;;-146.27;100.00;81703.25;5028823;28;20116;-72
2023/06/21 04:51:36;;;;;;;8.40;3.80;;;;;;;-146.27;100.00;81695.22;5028932;28;20029;-72
2023/06/21 04:54:02;;;;;;;6.78;3.42;;;;;;;-146.27;100.00;81717.31;5029203;28;20025;-72
2023/06/21 04:56:28;;;;;;;5.50;3.30;;;;;;;-146.27;100.00;81693.22;5010946;28;20068;-72
2023/06/21 04:58:54;;;;;;;5.97;3.67;;;;;;;-146.27;100.00;81757.50;5023922;28;20200;-72
2023/06/21 05:01:19;;;;;;;8.18;4.00;;;;;;;-146.27;100.00;81751.47;5026095;28;20381;-72
2023/06/21 05:03:48;;;;;;;12.38;4.20;;;;;;;-146.27;100.00;81709.28;5030849;28;20389;-72
2023/06/21 05:06:17;;;;;;;9.57;4.35;;;;;;;-146.27;100.00;81713.31;5036464;28;20392;-72
2023/06/21 05:08:42;;;;;;;11.32;3.42;;;;;;;-146.27;100.00;81721.34;5026977;28;20034;-71
2023/06/21 05:11:08;;;;;;;9.55;3.63;;;;;;;-146.27;100.00;81713.31;5026436;28;20524;-72
2023/06/21 05:13:34;;;;;;;7.82;3.88;;;;;;;-146.27;100.00;81695.22;5023022;28;20037;-73
2023/06/21 05:15:59;;;;;;;4.93;3.20;;;;;;;-146.27;100.00;81701.25;5021122;28;20028;-72
2023/06/21 05:18:24;;;;;;;7.03;3.58;;;;;;;-146.27;100.00;81745.44;5019257;28;20079;-72
2023/06/21 05:20:50;;;;;;;8.00;3.42;;;;;;;-146.27;100.00;81703.25;5026444;28;20040;-71
2023/06/21 05:23:15;;;;;;;6.00;3.08;;;;;;;-146.27;100.00;81809.72;5025792;28;20109;-73
2023/06/21 05:25:41;;;;;;;9.55;3.80;;;;;;;-146.27;100.00;81713.31;5023424;28;20051;-71
2023/06/21 05:28:06;;;;;;;4.47;2.60;;;;;;;-146.27;100.00;81727.38;5026103;28;20119;-72
2023/06/21 05:30:32;;;;;;;5.93;2.85;;;;;;;-146.27;100.00;81681.16;5029352;28;20021;-69
2023/06/21 05:32:57;;;;;;;5.00;2.75;;;;;;;-146.27;100.00;81699.25;5024840;28;20069;-72
2023/06/21 05:35:23;;;;;;;8.30;2.92;;;;;;;-146.27;99.70;81693.22;5022928;28;20287;-70
2023/06/21 05:37:48;;;;;;;4.50;2.60;;;;;;;-146.27;99.30;81691.22;5028659;28;20025;-71
2023/06/21 05:40:13;;;;;;;8.23;2.67;;;;;;;-146.27;98.74;81669.13;5026903;28;20370;-71
2023/06/21 05:42:39;;;;;;;4.45;2.10;;;;;;;-146.27;98.20;81697.22;5021000;28;20021;-72
2023/06/21 05:45:06;;;;;;;5.45;2.72;;;;;;;-146.27;99.08;81614.88;5031392;28;20370;-73
2023/06/21 05:47:31;;;;;;;6.03;2.40;;;;;;;-146.27;98.07;81721.34;5031727;28;20037;-70
2023/06/21 05:49:56;;;;;;;6.20;1.92;;;;;;;-146.27;98.27;81665.09;5030839;28;20071;-70
2023/06/21 05:52:22;;;;;;;13.50;2.30;;;;;;;-146.27;98.44;81643.00;5031108;28;20086;-71
2023/06/21 05:54:47;;;;;;;10.93;2.70;;;;;;;-146.27;97.54;81683.19;5031538;28;20030;-71
2023/06/21 05:57:13;;;;;;;6.05;2.58;;;;;;;-146.27;97.30;81632.97;5026221;28;20054;-71
2023/06/21 05:59:41;;;;;;;7.78;2.13;;;;;;;-146.27;96.00;81701.25;5030314;28;20025;-71
2023/06/21 06:02:06;;;;;;;5.03;1.73;;;;;;;-146.27;96.23;81669.13;5022254;28;20430;-70
2023/06/21 06:04:32;;;;;;;7.60;1.98;;;;;;;-146.27;96.49;81592.78;5030308;28;20061;-70
2023/06/21 06:06:57;;;;;;;8.80;2.92;;;;;;;-146.27;95.06;81636.97;5031038;28;20018;-70
2023/06/21 06:09:23;;;;;;;6.80;2.63;;;;;;;-146.27;95.47;81600.84;5027201;28;20040;-69
2023/06/21 06:11:49;;;;;;;3.80;1.90;;;;;;;-146.27;95.14;81620.91;5022976;28;20048;-69
2023/06/21 06:14:15;;;;;;;6.40;2.33;;;;;;;-146.27;95.04;81592.78;5022904;28;20030;-70
2023/06/21 06:16:40;;;;;;;6.95;1.90;;;;;;;-146.27;94.77;81584.75;5026569;28;20132;-71
2023/06/21 06:19:05;;;;;;;4.18;2.03;;;;;;;-146.27;94.71;81588.78;5021928;28;20336;-71
2023/06/21 06:21:31;;;;;;;6.10;2.35;;;;;;;-146.27;95.26;81532.53;5031584;28;20025;-70
2023/06/21 06:23:56;;;;;;;6.97;2.45;;;;;;;-146.27;95.06;81552.63;5030287;28;20021;-69
2023/06/21 06:26:24;;;;;;;7.00;2.15;;;;;;;-146.27;93.75;81528.53;5044222;28;20024;-71
2023/06/21 06:28:53;;;;;;;4.80;1.63;;;;;;;-146.27;93.12;81522.50;5031679;28;20502;-70
2023/06/21 06:31:24;;;;;;;3.55;2.03;;;;;;;-146.27;92.60;81520.50;5017614;28;20447;-70
2023/06/21 06:33:50;;;;;;;4.28;1.83;;;;;;;-146.27;92.14;81502.41;5030708;28;20021;-70
2023/06/21 06:36:16;;;;;;;3.60;1.80;;;;;;;-146.27;92.06;81500.41;5030797;28;20056;-70
2023/06/21 06:38:41;;;;;;;4.97;1.85;;;;;;;-146.27;92.37;81472.28;5026006;28;20034;-71
2023/06/21 06:41:07;;;;;;;6.35;1.95;;;;;;;-146.27;92.49;81400.00;5017108;28;20056;-72
2023/06/21 06:43:33;;;;;;;4.30;1.60;;;;;;;-146.27;92.47;81391.97;5026711;28;20018;-69
2023/06/21 06:45:59;;;;;;;3.80;1.83;;;;;;;-146.27;91.23;81404.00;5034921;28;20108;-70
2023/06/21 06:48:26;;;;;;;3.15;1.30;;;;;;;-146.27;90.13;81375.91;5031197;28;20140;-71
2023/06/21 06:50:51;;;;;;;5.28;1.63;;;;;;;-146.27;90.05;81400.00;5030420;28;20064;-70
2023/06/21 06:53:16;;;;;;;7.57;1.90;;;;;;;-146.27;90.21;81365.84;5030578;28;20481;-71
2023/06/21 06:55:42;;;;;;;3.83;1.77;;;;;;;-146.27;89.40;81387.94;5030133;28;20017;-70
2023/06/21 06:58:07;;;;;;;4.78;1.52;;;;;;;-146.27;89.57;81351.78;5030187;28;20033;-71
2023/06/21 07:00:33;;;;;;;9.23;2.00;;;;;;;-146.27;89.11;81373.88;5027708;28;20100;-71
2023/06/21 07:02:58;;;;;;;5.82;1.90;;;;;;;-146.27;90.25;81311.63;5027640;28;20496;-71
2023/06/21 07:05:24;;;;;;;6.25;2.10;;;;;;;-146.27;89.53;81309.63;5029724;28;20091;-71
2023/06/21 07:07:50;;;;;;;11.30;2.17;;;;;;;-146.27;88.78;81347.78;5027677;28;20033;-71
2023/06/21 07:10:16;;;;;;;8.43;2.55;;;;;;;-146.27;89.10;81301.59;5028748;28;20512;-70
2023/06/21 07:12:42;;;;;;;5.07;1.70;;;;;;;-146.27;89.56;81295.56;5029498;28;20025;-70
2023/06/21 07:15:07;;;;;;;5.85;1.80;;;;;;;-146.27;89.03;81289.53;5024392;28;20485;-71
2023/06/21 07:17:33;;;;;;;6.07;2.28;;;;;;;-146.27;88.22;81263.44;5030069;28;20112;-71
2023/06/21 07:19:58;;;;;;;3.58;1.48;;;;;;;-146.27;88.30;81259.41;5025424;28;20417;-70
2023/06/21 07:22:23;;;;;;;5.85;1.70;;;;;;;-146.27;87.24;81217.25;5017698;28;20291;-71
2023/06/21 07:24:49;;;;;;;5.40;1.95;;;;;;;-146.27;86.43;81219.25;5026052;28;20383;-72
2023/06/21 07:27:14;;;;;;;5.75;1.55;;;;;;;-146.27;85.88;81195.16;5019204;28;20060;-74
2023/06/21 07:29:40;;;;;;;5.53;1.55;;;;;;;-146.27;86.30;81191.13;5019216;28;20026;-72
2023/06/21 07:32:06;;;;;;;4.88;1.73;;;;;;;-146.27;86.18;81183.09;5024635;28;20025;-72
2023/06/21 07:34:31;;;;;;;6.03;2.00;;;;;;;-146.27;85.07;81213.22;5026587;28;20052;-70
2023/06/21 07:36:57;;;;;;;6.32;1.67;;;;;;;-146.27;85.42;81213.22;5029787;28;20045;-72
2023/06/21 07:39:22;;;;;;;5.03;1.63;;;;;;;-146.27;83.87;81159.00;5027249;28;20025;-72
2023/06/21 07:41:47;;;;;;;6.82;2.17;;;;;;;-146.27;82.01;81146.97;5020040;28;20136;-72
2023/06/21 07:44:13;;;;;;;4.78;1.60;;;;;;;-146.27;82.44;81193.16;5018057;28;20057;-72
2023/06/21 07:46:38;;;;;;;5.13;1.60;;;;;;;-146.27;80.83;81171.06;5021068;28;20053;-71
2023/06/21 07:49:03;;;;;;;2.95;1.00;;;;;;;-146.27;80.06;81124.88;5027765;28;20396;-71
2023/06/21 07:51:29;;;;;;;4.45;1.58;;;;;;;-146.27;78.79;81124.88;5022648;28;20474;-72
2023/06/21 07:53:54;;;;;;;2.97;1.40;;;;;;;-146.27;78.52;81126.88;5027336;28;20555;-74
2023/06/21 07:56:19;;;;;;;4.57;1.40;;;;;;;-146.27;78.63;81128.88;5027466;28;20017;-75
2023/06/21 07:58:46;;;;;;;4.82;1.45;;;;;;;-146.27;78.54;81098.75;5021380;28;20112;-74
2023/06/21 08:01:14;;;;;;;4.72;1.50;;;;;;;-146.27;78.22;81092.72;5020491;28;20057;-75
2023/06/21 08:03:40;;;;;;;3.00;1.27;;;;;;;-146.27;78.13;81050.56;5026977;28;20474;-75
2023/06/21 08:06:05;;;;;;;5.95;1.70;;;;;;;-146.27;78.71;81014.41;5023166;28;20026;-74
2023/06/21 08:08:31;;;;;;;4.90;1.60;;;;;;;-146.27;78.63;80988.31;5024448;28;20026;-71
2023/06/21 08:10:56;;;;;;;6.80;1.80;;;;;;;-146.27;77.83;80998.34;5027402;28;20511;-74
2023/06/21 08:13:22;;;;;;;6.63;2.28;;;;;;;-146.27;77.78;80984.28;5028220;28;20026;-74
2023/06/21 08:15:49;;;;;;;2.80;1.45;;;;;;;-146.27;78.06;81000.34;5029376;28;20516;-74
2023/06/21 08:18:14;;;;;;;9.07;1.52;;;;;;;-146.27;78.57;80942.13;5026885;28;20068;-73
2023/06/21 08:20:41;;;;;;;5.20;1.48;;;;;;;-146.27;78.54;80914.00;5023308;28;20029;-73
2023/06/21 08:23:07;;;;;;;3.95;1.40;;;;;;;-146.27;78.16;80897.94;5027100;28;20029;-73
2023/06/21 08:25:32;;;;;;;4.93;1.75;;;;;;;-146.27;77.39;80879.88;5027478;28;20025;-73
2023/06/21 08:27:59;;;;;;;3.40;1.95;;;;;;;-146.27;77.22;80869.84;5027914;28;20371;-75
2023/06/21 08:30:25;;;;;;;6.95;2.30;;;;;;;-146.27;76.63;80841.72;5029558;28;20079;-76
2023/06/21 08:32:51;;;;;;;4.45;1.63;;;;;;;-146.27;75.86;80719.22;5026282;28;20441;-78
2023/06/21 08:35:16;;;;;;;4.90;2.47;;;;;;;-146.27;76.62;80739.31;5028776;28;20432;-74
2023/06/21 08:37:53;;;;;;;7.85;2.90;;;;;;;-146.27;75.29;80729.28;5028958;28;20461;-74
2023/06/21 08:40:24;;;;;;;8.80;2.42;;;;;;;-146.27;75.85;80787.50;5029722;28;20025;-74
2023/06/21 08:42:50;;;;;;;7.03;2.13;;;;;;;-146.27;76.58;80705.19;5025508;28;20109;-75
2023/06/21 08:45:15;;;;;;;6.10;2.20;;;;;;;-146.27;75.45;80773.44;5028426;28;20018;-73
2023/06/21 08:47:42;;;;;;;5.97;2.00;;;;;;;-146.27;75.63;80697.16;5025433;28;20037;-75
2023/06/21 08:50:16;;;;;;;10.15;1.77;;;;;;;-146.27;73.94;80705.19;5028127;28;20509;-73
2023/06/21 08:52:44;;;;;;;4.72;2.63;;;;;;;-146.27;73.26;80737.31;5021597;28;20516;-74
2023/06/21 08:55:40;;;;;;;5.13;2.17;;;;;;;-146.27;73.43;80729.28;5029658;28;20023;-73
2023/06/21 08:58:16;;;;;;;8.23;2.33;;;;;;;-146.27;75.01;80600.75;5027693;28;20116;-74
2023/06/21 09:00:49;;;;;;;6.40;2.50;;;;;;;-146.27;74.61;80665.03;5038542;28;20030;-74
2023/06/21 09:03:46;;;;;;;6.43;2.60;;;;;;;-146.27;73.93;80584.69;5042201;28;20032;-74
2023/06/21 09:06:15;;;;;;;7.00;2.65;;;;;;;-146.27;74.34;80594.75;5039093;28;20036;-74
2023/06/21 09:08:43;;;;;;;9.90;2.38;;;;;;;-146.27;74.63;80512.41;5027965;28;20394;-74
2023/06/21 09:11:09;;;;;;;4.88;2.88;;;;;;;-146.27;73.20;80508.41;5025889;28;20500;-74
2023/06/21 09:13:37;;;;;;;5.13;2.72;;;;;;;-146.27;73.55;80438.13;5031628;28;20451;-74
2023/06/21 09:16:03;;;;;;;6.75;2.47;;;;;;;-146.27;72.67;80432.09;5037416;28;20033;-73
2023/06/21 09:18:39;;;;;;;7.25;2.35;;;;;;;-146.27;71.85;80412.03;5028854;28;20366;-74
2023/06/21 09:21:06;;;;;;;9.43;2.47;;;;;;;-146.27;72.39;80424.06;5043633;28;20075;-73
2023/06/21 09:23:31;;;;;;;7.70;2.55;;;;;;;-146.27;71.84;80361.84;5032770;28;20040;-73
2023/06/21 09:25:57;;;;;;;6.25;2.47;;;;;;;-146.27;70.58;80389.94;5027552;28;20112;-73
2023/06/21 09:28:22;;;;;;;5.15;2.47;;;;;;;-146.27;68.81;80444.16;5033115;28;20025;-73
2023/06/21 09:30:51;;;;;;;5.47;2.38;;;;;;;-146.27;70.65;80456.19;5028939;28;20481;-72
2023/06/21 09:33:16;;;;;;;5.30;2.30;;;;;;;-146.27;69.79;80472.25;5033581;28;20466;-74
2023/06/21 09:35:43;;;;;;;4.30;2.30;;;;;;;-146.27;70.41;80444.16;5035702;28;20041;-72
2023/06/21 09:38:23;;;;;;;6.60;2.72;;;;;;;-146.27;72.61;80432.09;5030003;28;20061;-75
2023/06/21 09:40:48;;;;;;;8.27;2.75;;;;;;;-146.27;72.46;80331.72;5031807;28;20354;-74
2023/06/21 09:43:14;;;;;;;5.25;2.63;;;;;;;-146.27;72.27;80377.91;5042684;28;20025;-74
2023/06/21 09:45:39;;;;;;;8.43;2.33;;;;;;;-146.27;70.92;80217.28;5036485;28;20451;-73
2023/06/21 09:48:04;;;;;;;4.07;2.30;;;;;;;-146.27;69.70;80267.47;5033232;28;20536;-74
2023/06/21 09:50:41;;;;;;;8.65;2.40;;;;;;;-146.27;67.92;80235.34;5046754;28;20422;-73
2023/06/21 09:53:13;;;;;;;5.47;2.33;;;;;;;-146.27;66.21;80309.63;5038648;28;20032;-74
2023/06/21 09:55:43;;;;;;;6.25;2.70;;;;;;;-146.27;66.66;80307.63;5038113;28;20474;-73
2023/06/21 09:58:09;;;;;;;4.47;2.00;;;;;;;-146.27;65.07;80359.81;5029367;28;20025;-73
2023/06/21 10:00:35;;;;;;;4.80;2.28;;;;;;;-146.27;63.98;80251.41;5028550;28;20048;-73
2023/06/21 10:03:03;;;;;;;4.35;2.20;;;;;;;-146.27;65.60;80201.22;5039726;28;20029;-74
2023/06/21 10:05:34;;;;;;;7.68;2.08;;;;;;;-146.27;65.78;80211.25;5038531;28;20440;-73
2023/06/21 10:08:04;;;;;;;4.88;2.13;;;;;;;-146.27;64.56;80165.06;5029808;28;20391;-74
2023/06/21 10:10:32;;;;;;;5.07;2.20;;;;;;;-146.27;63.98;80145.00;5031453;28;20048;-74
2023/06/21 10:12:58;;;;;;;5.72;2.45;;;;;;;-146.27;64.55;80068.69;5030712;28;20029;-74
2023/06/21 10:15:23;;;;;;;7.00;2.38;;;;;;;-146.27;62.86;80134.97;5035078;28;20476;-73
2023/06/21 10:17:49;;;;;;;7.32;2.67;;;;;;;-146.27;61.72;80086.78;5025821;28;20059;-72
2023/06/21 10:20:15;;;;;;;6.22;2.50;;;;;;;-146.27;63.29;80134.97;5031956;28;20103;-72
2023/06/21 10:22:44;;;;;;;4.63;2.13;;;;;;;-146.27;64.85;80082.75;5027353;28;20033;-74
2023/06/21 10:25:10;;;;;;;7.65;2.50;;;;;;;-146.27;63.04;80094.81;5032331;28;20445;-73
2023/06/21 10:27:38;;;;;;;6.15;2.38;;;;;;;-146.27;63.81;79964.31;5028169;28;20025;-72
2023/06/21 10:30:07;;;;;;;3.53;2.00;;;;;;;-146.27;61.63;79958.28;5026289;28;20080;-74
2023/06/21 10:32:34;;;;;;;5.45;2.50;;;;;;;-146.27;59.17;79918.13;5030406;28;20029;-72
2023/06/21 10:35:13;;;;;;;7.10;2.63;;;;;;;-146.27;60.91;79954.28;5029271;28;20594;-73
2023/06/21 10:37:50;;;;;;;3.75;2.20;;;;;;;-146.27;62.22;79972.34;5022046;28;20026;-75
2023/06/21 10:40:17;;;;;;;4.93;2.20;;;;;;;-146.27;63.32;79763.56;5026600;28;20017;-74
2023/06/21 10:42:43;;;;;;;3.63;2.10;;;;;;;-146.27;58.61;79715.38;5023888;28;20501;-74
2023/06/21 10:45:10;;;;;;;3.47;2.50;;;;;;;-146.27;57.97;79797.69;5025263;28;20039;-74
2023/06/21 10:47:37;;;;;;;6.43;2.25;;;;;;;-146.27;58.23;79725.41;5025273;28;20037;-74
2023/06/21 10:50:05;;;;;;;4.22;2.20;;;;;;;-146.27;57.10;79703.31;5025840;28;20492;-73
2023/06/21 10:52:31;;;;;;;3.83;1.90;;;;;;;-146.27;55.46;79729.44;5024325;28;20524;-73
2023/06/21 10:54:57;;;;;;;4.13;1.98;;;;;;;-146.27;53.83;79781.63;5018349;28;20029;-73
2023/06/21 10:57:34;;;;;;;3.83;1.70;;;;;;;-146.27;55.65;79675.22;5028407;28;20509;-73
2023/06/21 11:00:02;;;;;;;3.67;1.80;;;;;;;-146.27;54.26;79757.53;5027348;28;20394;-70
2023/06/21 11:02:29;;;;;;;3.72;1.80;;;;;;;-146.27;57.22;79727.41;5027854;28;20072;-74
2023/06/21 11:05:19;;;;;;;5.38;2.50;;;;;;;-146.27;56.46;79691.28;5027448;28;20489;-73
2023/06/21 11:07:47;;;;;;;4.07;1.80;;;;;;;-146.27;54.90;79749.50;5028994;28;20378;-73
2023/06/21 11:10:12;;;;;;;2.55;1.38;;;;;;;-146.27;53.39;79701.31;5029983;28;20037;-75